Time;durP1;ratioP1;P1;durP2;ratioP2;P2;SDS_P1;SDS_P2;PMS_P1;PMS_P2;Temp;Humidity;BMP_temperature;BMP_pressure;BME280_temperature;BME280_humidity;BME280_pressure;Samples;Min_cycle;Max_cycle;Signal;HPM_P1;HPM_P2
2022/04/21 00:01:04;;;;;;;3.75;2.52;;;20.20;37.40;;;;;;1845627;77;21175;-60
2022/04/21 00:03:31;;;;;;;4.83;3.25;;;20.20;37.50;;;;;;1845568;78;21208;-60
2022/04/21 00:05:58;;;;;;;3.15;2.83;;;20.20;37.50;;;;;;1845705;78;21135;-61
2022/04/21 00:08:26;;;;;;;3.80;2.85;;;20.20;37.50;;;;;;1845776;78;21114;-60
2022/04/21 00:10:53;;;;;;;4.10;3.20;;;20.20;37.50;;;;;;1845728;78;21123;-60
2022/04/21 00:13:20;;;;;;;3.52;2.50;;;20.20;37.60;;;;;;1845774;78;21242;-60
2022/04/21 00:15:47;;;;;;;3.58;3.00;;;20.20;37.50;;;;;;1845842;78;21134;-60
2022/04/21 00:18:15;;;;;;;3.27;2.67;;;20.20;37.60;;;;;;1845564;78;21184;-60
2022/04/21 00:20:42;;;;;;;4.83;2.77;;;20.20;37.50;;;;;;1845434;78;21131;-60
2022/04/21 00:23:29;;;;;;;3.80;2.77;;;20.20;37.60;;;;;;1845037;78;21475;-61
2022/04/21 00:26:00;;;;;;;4.15;3.05;;;20.20;37.50;;;;;;1845695;78;21099;-60
2022/04/21 00:28:28;;;;;;;3.40;2.60;;;20.20;37.50;;;;;;1846074;78;21079;-59
2022/04/21 00:30:56;;;;;;;4.55;2.98;;;20.20;37.50;;;;;;1845995;78;21132;-61
2022/04/21 00:33:23;;;;;;;3.77;2.92;;;20.20;37.60;;;;;;1845482;78;21154;-60
2022/04/21 00:35:51;;;;;;;7.15;2.80;;;20.20;38.20;;;;;;1845365;78;21142;-60
2022/04/21 00:38:18;;;;;;;3.62;2.80;;;20.20;38.10;;;;;;1845480;78;21064;-59
2022/04/21 00:40:45;;;;;;;8.10;2.92;;;20.20;37.70;;;;;;1845733;77;21538;-59
2022/04/21 00:43:13;;;;;;;3.98;3.20;;;20.20;37.80;;;;;;1845635;78;21625;-59
2022/04/21 00:45:40;;;;;;;5.40;3.37;;;20.20;37.60;;;;;;1845668;78;21138;-59
2022/04/21 00:48:07;;;;;;;4.80;3.00;;;20.20;37.70;;;;;;1845583;78;21557;-60
2022/04/21 00:50:40;;;;;;;4.20;2.83;;;20.20;37.70;;;;;;1845747;78;21134;-59
2022/04/21 00:53:05;;;;;;;6.17;3.40;;;20.20;37.70;;;;;;1845389;78;21135;-59
2022/04/21 00:55:32;;;;;;;5.85;3.35;;;20.20;37.60;;;;;;1845746;78;21589;-59
2022/04/21 00:58:01;;;;;;;3.45;2.90;;;20.20;37.70;;;;;;1845242;78;21810;-59
2022/04/21 01:00:28;;;;;;;3.83;3.00;;;20.20;37.60;;;;;;1845561;77;21095;-59
2022/04/21 01:02:55;;;;;;;3.77;2.95;;;20.20;37.70;;;;;;1845918;78;21503;-60
2022/04/21 01:05:30;;;;;;;4.05;2.80;;;20.20;37.70;;;;;;1845887;78;21095;-59
2022/04/21 01:08:05;;;;;;;4.62;3.20;;;20.20;37.70;;;;;;1845945;78;21205;-61
2022/04/21 01:10:34;;;;;;;4.47;3.02;;;20.10;37.70;;;;;;1845927;78;22276;-59
2022/04/21 01:13:04;;;;;;;3.83;2.77;;;20.20;37.80;;;;;;1845424;78;21667;-60
2022/04/21 01:15:31;;;;;;;4.47;3.40;;;20.10;37.70;;;;;;1845731;78;21150;-59
2022/04/21 01:17:58;;;;;;;3.92;3.02;;;20.10;37.70;;;;;;1845924;78;21641;-60
2022/04/21 01:20:26;;;;;;;5.20;3.05;;;20.10;37.80;;;;;;1845836;78;21131;-59
2022/04/21 01:22:53;;;;;;;3.83;3.12;;;20.10;37.80;;;;;;1845658;78;21162;-60
2022/04/21 01:25:21;;;;;;;4.22;2.62;;;20.10;37.70;;;;;;1845800;78;21131;-60
2022/04/21 01:27:50;;;;;;;3.67;2.72;;;20.10;37.80;;;;;;1845995;78;21107;-60
2022/04/21 01:30:18;;;;;;;4.15;2.83;;;20.10;37.80;;;;;;1846126;78;21554;-59
2022/04/21 01:32:48;;;;;;;5.55;2.98;;;20.10;37.80;;;;;;1845559;78;21221;-59
2022/04/21 01:35:14;;;;;;;3.08;2.77;;;20.10;37.80;;;;;;1845483;78;21606;-59
2022/04/21 01:43:13;;;;;;;4.12;2.47;;;20.10;37.90;;;;;;1845860;78;21154;-59
2022/04/21 01:45:41;;;;;;;5.28;3.77;;;20.10;37.90;;;;;;1845946;78;21213;-60
2022/04/21 01:48:09;;;;;;;3.60;3.02;;;20.10;37.90;;;;;;1845868;78;21718;-59
2022/04/21 01:50:36;;;;;;;4.40;2.60;;;20.10;37.90;;;;;;1845630;78;21561;-60
2022/04/21 01:53:03;;;;;;;3.72;2.72;;;20.10;37.90;;;;;;1845393;78;21436;-59
2022/04/21 01:55:31;;;;;;;2.98;2.65;;;20.10;37.90;;;;;;1845891;78;21127;-59
2022/04/21 01:57:58;;;;;;;3.30;2.72;;;20.10;38.10;;;;;;1846149;78;21193;-60
2022/04/21 02:00:26;;;;;;;4.80;2.98;;;20.10;38.10;;;;;;1845953;78;21688;-60
2022/04/21 02:02:53;;;;;;;3.50;3.02;;;20.10;38.00;;;;;;1851032;77;21160;-60
2022/04/21 02:05:20;;;;;;;4.28;2.87;;;20.10;38.00;;;;;;1852488;77;21086;-59
2022/04/21 02:07:48;;;;;;;3.30;2.85;;;20.10;38.00;;;;;;1852433;77;21136;-59
2022/04/21 02:10:16;;;;;;;4.92;3.25;;;20.10;38.10;;;;;;1852408;77;21073;-60
2022/04/21 02:12:45;;;;;;;2.72;2.50;;;20.10;38.00;;;;;;1852300;77;21247;-60
2022/04/21 02:15:12;;;;;;;4.42;3.02;;;20.10;38.10;;;;;;1852352;77;21416;-60
2022/04/21 02:17:40;;;;;;;6.53;3.27;;;20.10;38.10;;;;;;1852145;77;21402;-60
2022/04/21 02:20:08;;;;;;;5.10;3.17;;;20.10;38.10;;;;;;1852300;77;21148;-59
2022/04/21 02:22:36;;;;;;;4.33;3.10;;;20.10;38.70;;;;;;1852409;77;21144;-60
2022/04/21 02:25:07;;;;;;;5.78;3.22;;;20.10;38.10;;;;;;1852459;77;21192;-59
2022/04/21 02:27:34;;;;;;;;;;;20.10;38.10;;;;;;1855346;77;21070;-60
2022/04/21 02:30:01;;;;;;;4.33;3.00;;;20.10;38.00;;;;;;1852412;76;20483;-60
2022/04/21 02:32:28;;;;;;;3.75;3.40;;;20.00;38.10;;;;;;1823238;76;21187;-60
2022/04/21 02:34:56;;;;;;;3.37;2.98;;;20.10;38.10;;;;;;1818119;79;21756;-59
2022/04/21 02:37:23;;;;;;;3.42;2.77;;;20.00;38.10;;;;;;1818203;79;21124;-59
2022/04/21 02:39:50;;;;;;;4.45;2.77;;;20.00;38.10;;;;;;1818124;79;21685;-61
2022/04/21 02:42:19;;;;;;;2.92;2.58;;;20.00;38.00;;;;;;1817794;79;21101;-59
2022/04/21 02:44:48;;;;;;;3.87;3.30;;;20.00;38.00;;;;;;1818037;79;21141;-60
2022/04/21 02:47:15;;;;;;;5.03;3.12;;;20.00;38.20;;;;;;1828004;77;21513;-60
2022/04/21 02:49:47;;;;;;;3.72;3.42;;;20.00;38.00;;;;;;1852233;77;21721;-60
2022/04/21 02:52:11;;;;;;;6.72;3.33;;;20.00;38.10;;;;;;1850933;77;21635;-59
2022/04/21 02:57:26;;;;;;;4.60;3.20;;;20.00;38.00;;;;;;1852089;77;21186;-62
2022/04/21 02:59:54;;;;;;;4.35;3.27;;;20.00;38.00;;;;;;1852090;77;21152;-59
2022/04/21 03:02:22;;;;;;;6.33;3.45;;;20.00;38.00;;;;;;1852261;77;21129;-59
2022/04/21 03:04:51;;;;;;;4.95;3.22;;;20.00;38.00;;;;;;1852232;77;21195;-59
2022/04/21 03:07:18;;;;;;;5.00;3.65;;;20.00;38.00;;;;;;1852565;77;21144;-59
2022/04/21 03:09:45;;;;;;;4.15;3.35;;;20.00;38.00;;;;;;1852133;77;21098;-60
2022/04/21 03:12:13;;;;;;;3.58;3.05;;;20.00;38.00;;;;;;1851890;77;21120;-59
2022/04/21 03:14:41;;;;;;;4.67;3.42;;;20.00;38.00;;;;;;1851936;77;21666;-59
2022/04/21 03:17:09;;;;;;;3.95;3.33;;;20.00;38.00;;;;;;1852566;77;21109;-60
2022/04/21 03:19:37;;;;;;;4.35;3.40;;;20.00;38.00;;;;;;1852265;77;21133;-60
2022/04/21 03:24:50;;;;;;;6.87;4.37;;;20.00;38.00;;;;;;1852507;77;21169;-59
2022/04/21 03:27:17;;;;;;;4.03;3.52;;;20.00;38.50;;;;;;1852151;77;21179;-60
2022/04/21 03:29:45;;;;;;;4.50;3.25;;;20.00;38.00;;;;;;1851804;77;21106;-59
2022/04/21 03:32:13;;;;;;;3.98;2.90;;;20.00;38.00;;;;;;1852275;77;21140;-60
2022/04/21 03:34:41;;;;;;;6.25;3.75;;;20.00;38.00;;;;;;1852139;77;21748;-60
2022/04/21 03:37:10;;;;;;;3.58;3.22;;;20.00;38.00;;;;;;1852185;77;21153;-59
2022/04/21 03:39:38;;;;;;;4.30;3.47;;;20.00;38.00;;;;;;1852159;77;21587;-59
2022/04/21 03:42:06;;;;;;;4.67;3.67;;;20.00;38.00;;;;;;1852093;77;21202;-59
2022/04/21 03:44:33;;;;;;;4.50;3.72;;;20.00;38.10;;;;;;1852178;77;21110;-60
2022/04/21 03:47:01;;;;;;;4.42;3.25;;;20.00;38.00;;;;;;1852516;77;21218;-59
2022/04/21 03:49:29;;;;;;;6.35;3.45;;;19.90;37.90;;;;;;1852208;77;21117;-59
2022/04/21 03:51:57;;;;;;;4.22;3.65;;;20.00;38.00;;;;;;1851850;77;21634;-59
2022/04/21 03:54:24;;;;;;;4.80;3.47;;;19.90;38.00;;;;;;1851948;77;21226;-60
2022/04/21 03:56:51;;;;;;;5.10;3.92;;;19.90;38.00;;;;;;1852490;77;21178;-59
2022/04/21 03:59:19;;;;;;;4.65;3.52;;;19.90;38.00;;;;;;1852411;77;21575;-60
2022/04/21 04:01:46;;;;;;;4.00;3.60;;;19.90;38.00;;;;;;1852033;77;21202;-60
2022/04/21 04:04:14;;;;;;;3.87;3.47;;;20.00;38.20;;;;;;1846260;76;21147;-60
2022/04/21 04:12:12;;;;;;;4.78;3.65;;;19.90;38.10;;;;;;1845091;78;21159;-60
2022/04/21 04:14:40;;;;;;;4.05;3.50;;;19.90;38.00;;;;;;1845335;78;21212;-59
2022/04/21 04:17:08;;;;;;;4.12;3.60;;;19.90;38.00;;;;;;1845571;78;21644;-60
2022/04/21 04:19:35;;;;;;;3.72;3.40;;;19.90;38.10;;;;;;1845647;78;21236;-60
2022/04/21 04:22:03;;;;;;;3.52;3.22;;;19.90;38.60;;;;;;1845806;78;21616;-60
2022/04/21 04:24:30;;;;;;;3.80;3.02;;;19.90;38.10;;;;;;1845732;77;21150;-60
2022/04/21 04:26:57;;;;;;;4.87;4.22;;;19.90;38.10;;;;;;1845915;78;21201;-59
2022/04/21 04:29:25;;;;;;;3.92;3.52;;;19.90;38.10;;;;;;1845828;78;21216;-59
2022/04/21 04:31:57;;;;;;;5.47;3.87;;;19.90;38.10;;;;;;1845573;78;21139;-59
2022/04/21 04:34:24;;;;;;;4.10;3.70;;;19.90;38.20;;;;;;1845645;78;21122;-60
2022/04/21 04:36:51;;;;;;;3.95;3.55;;;19.90;38.20;;;;;;1845943;78;21118;-60
2022/04/21 04:39:19;;;;;;;4.97;4.05;;;19.90;38.10;;;;;;1845491;78;21134;-60
2022/04/21 04:44:31;;;;;;;3.90;3.12;;;19.90;38.70;;;;;;1845817;78;21230;-59
2022/04/21 04:46:58;;;;;;;3.65;3.17;;;19.90;38.10;;;;;;1845980;78;21746;-60
2022/04/21 04:49:26;;;;;;;4.65;3.52;;;19.90;38.10;;;;;;1845800;78;21184;-60
2022/04/21 04:51:54;;;;;;;4.00;3.22;;;19.90;38.20;;;;;;1845509;78;21143;-60
2022/04/21 04:54:21;;;;;;;3.98;3.60;;;19.90;38.20;;;;;;1845528;78;21167;-60
2022/04/21 04:56:48;;;;;;;5.78;3.55;;;19.90;38.20;;;;;;1845686;78;21173;-60
2022/04/21 04:59:16;;;;;;;3.42;3.10;;;19.90;38.20;;;;;;1845782;78;21123;-59
2022/04/21 05:01:46;;;;;;;4.55;3.45;;;19.90;38.20;;;;;;1827262;77;21439;-59
2022/04/21 05:04:15;;;;;;;3.90;3.50;;;19.90;38.20;;;;;;1811883;78;21243;-60
2022/04/21 05:06:49;;;;;;;5.33;3.80;;;19.90;38.20;;;;;;1836333;78;21083;-59
2022/04/21 05:09:18;;;;;;;5.15;3.70;;;19.90;38.30;;;;;;1845765;78;21213;-59
2022/04/21 05:11:48;;;;;;;5.78;3.80;;;19.90;38.30;;;;;;1845979;78;21091;-59
2022/04/21 05:14:17;;;;;;;7.62;3.62;;;19.90;38.30;;;;;;1845617;78;21135;-60
2022/04/21 05:16:44;;;;;;;4.67;3.90;;;19.90;38.40;;;;;;1846186;78;21562;-59
2022/04/21 05:19:17;;;;;;;6.42;3.70;;;19.90;38.30;;;;;;1845896;78;21647;-59
2022/04/21 05:21:42;;;;;;;4.67;3.45;;;19.90;38.20;;;;;;1844797;78;21597;-59
2022/04/21 05:24:14;;;;;;;5.58;3.02;;;19.90;38.40;;;;;;1846068;78;21166;-60
2022/04/21 05:26:40;;;;;;;3.60;3.30;;;19.90;38.30;;;;;;1844802;77;21644;-59
2022/04/21 05:31:58;;;;;;;4.00;3.30;;;19.90;38.40;;;;;;1845529;78;21618;-60
2022/04/21 05:34:26;;;;;;;4.40;3.67;;;19.90;38.40;;;;;;1845562;78;21119;-59
2022/04/21 05:36:53;;;;;;;3.60;3.30;;;19.90;38.40;;;;;;1846205;77;21647;-60
2022/04/21 05:39:21;;;;;;;4.42;3.10;;;19.90;38.40;;;;;;1846072;78;21118;-59
2022/04/21 05:41:49;;;;;;;5.08;3.37;;;19.90;38.90;;;;;;1845929;78;21135;-60
2022/04/21 05:44:18;;;;;;;5.10;3.75;;;19.90;38.40;;;;;;1845910;77;21667;-59
2022/04/21 05:46:46;;;;;;;4.37;3.45;;;19.90;38.40;;;;;;1845614;78;21154;-59
2022/04/21 05:49:13;;;;;;;6.50;3.17;;;19.90;38.40;;;;;;1845428;78;21115;-60
2022/04/21 05:51:42;;;;;;;5.70;3.77;;;19.90;38.40;;;;;;1845371;78;21201;-59
2022/04/21 05:54:09;;;;;;;3.80;3.42;;;19.90;38.40;;;;;;1845360;78;21169;-60
2022/04/21 05:56:37;;;;;;;7.17;3.33;;;19.90;38.50;;;;;;1845612;78;22242;-59
2022/04/21 05:59:04;;;;;;;4.67;3.12;;;19.90;38.60;;;;;;1846030;78;21126;-59
2022/04/21 06:01:32;;;;;;;4.30;3.70;;;19.90;38.60;;;;;;1845913;78;21120;-60
2022/04/21 06:03:59;;;;;;;4.03;3.08;;;19.90;38.60;;;;;;1848326;77;21117;-59
2022/04/21 06:06:26;;;;;;;5.87;3.87;;;19.90;38.60;;;;;;1836993;76;22110;-60
2022/04/21 06:08:54;;;;;;;5.10;3.70;;;19.90;38.60;;;;;;1835742;77;21101;-59
2022/04/21 06:11:22;;;;;;;3.52;3.22;;;19.90;38.70;;;;;;1836406;76;21623;-59
2022/04/21 06:13:51;;;;;;;4.30;3.30;;;20.00;39.00;;;;;;1835019;77;21632;-59
2022/04/21 06:16:18;;;;;;;3.58;3.22;;;19.90;38.80;;;;;;1834490;78;21141;-60
2022/04/21 06:18:45;;;;;;;4.97;3.30;;;19.90;38.90;;;;;;1839303;77;21092;-59
2022/04/21 06:21:13;;;;;;;4.90;3.33;;;19.90;38.80;;;;;;1863092;76;21148;-60
2022/04/21 06:23:40;;;;;;;4.50;3.35;;;20.00;39.50;;;;;;1838199;76;21136;-60
2022/04/21 06:26:08;;;;;;;4.12;3.72;;;19.90;38.70;;;;;;1831579;78;21125;-60
2022/04/21 06:28:35;;;;;;;5.12;3.65;;;19.90;39.50;;;;;;1834146;78;21078;-59
2022/04/21 06:31:03;;;;;;;3.95;3.55;;;19.90;38.70;;;;;;1834158;78;21179;-60
2022/04/21 06:33:33;;;;;;;4.78;3.65;;;19.90;38.70;;;;;;1833987;78;21207;-60
2022/04/21 06:36:03;;;;;;;3.42;2.90;;;20.00;38.70;;;;;;1834367;78;21104;-59
2022/04/21 06:38:30;;;;;;;4.75;3.77;;;20.00;38.90;;;;;;1834895;78;21118;-59
2022/04/21 06:40:57;;;;;;;4.60;3.35;;;20.00;38.80;;;;;;1834797;78;21117;-59
2022/04/21 06:48:57;;;;;;;3.70;3.17;;;20.00;38.70;;;;;;1834289;78;21170;-59
2022/04/21 06:51:27;;;;;;;4.05;3.00;;;20.00;38.80;;;;;;1834419;78;21188;-60
2022/04/21 06:53:55;;;;;;;6.35;3.47;;;20.00;39.00;;;;;;1834404;78;21210;-59
2022/04/21 06:56:22;;;;;;;5.05;3.42;;;20.00;39.00;;;;;;1834103;78;21085;-59
2022/04/21 06:58:49;;;;;;;4.47;3.70;;;20.00;39.10;;;;;;1834119;78;21109;-60
2022/04/21 07:01:17;;;;;;;3.80;3.30;;;20.00;39.10;;;;;;1834293;78;21584;-59
2022/04/21 07:03:45;;;;;;;3.67;3.10;;;20.00;39.00;;;;;;1834824;78;22241;-60
2022/04/21 07:06:13;;;;;;;3.58;3.25;;;20.00;39.00;;;;;;1807907;79;21626;-59
2022/04/21 07:08:40;;;;;;;4.70;3.50;;;20.00;39.00;;;;;;1839685;78;21241;-59
2022/04/21 07:11:07;;;;;;;3.75;2.85;;;20.00;39.00;;;;;;1807744;79;21564;-60
2022/04/21 07:13:35;;;;;;;4.75;2.92;;;20.00;39.60;;;;;;1839164;78;21239;-60
2022/04/21 07:16:02;;;;;;;2.92;2.67;;;20.00;39.00;;;;;;1807559;79;21142;-59
2022/04/21 07:18:30;;;;;;;4.30;3.30;;;20.10;39.10;;;;;;1839464;78;21156;-59
2022/04/21 07:20:57;;;;;;;4.00;3.60;;;20.10;39.00;;;;;;1807767;79;21607;-60
2022/04/21 07:23:25;;;;;;;4.62;3.40;;;20.10;39.10;;;;;;1839716;78;21198;-60
2022/04/21 07:25:52;;;;;;;4.47;3.10;;;20.10;39.20;;;;;;1808152;79;21184;-60
2022/04/21 07:28:19;;;;;;;4.62;3.22;;;20.10;39.10;;;;;;1834380;77;21145;-59
2022/04/21 07:30:47;;;;;;;3.47;3.17;;;20.10;39.10;;;;;;1793179;79;21157;-60
2022/04/21 07:33:16;;;;;;;4.50;3.08;;;20.10;39.20;;;;;;1873072;76;21149;-60
2022/04/21 07:35:43;;;;;;;4.90;3.35;;;20.10;39.10;;;;;;1874472;76;21156;-60
2022/04/21 07:38:11;;;;;;;4.35;3.33;;;20.10;39.10;;;;;;1873895;76;21709;-59
2022/04/21 07:40:41;;;;;;;6.78;3.35;;;20.10;39.20;;;;;;1881823;76;21188;-59
2022/04/21 07:43:08;;;;;;;5.45;3.37;;;20.10;39.10;;;;;;1886025;76;21174;-60
2022/04/21 07:45:41;;;;;;;4.47;3.37;;;20.20;39.30;;;;;;1886370;74;21145;-60
2022/04/21 07:48:06;;;;;;;5.00;3.60;;;20.20;39.10;;;;;;1885068;74;21137;-60
2022/04/21 07:50:34;;;;;;;6.67;3.20;;;20.20;39.20;;;;;;1887522;74;21687;-60
2022/04/21 07:53:13;;;;;;;4.37;3.15;;;20.20;39.20;;;;;;1886832;74;21232;-60
2022/04/21 07:55:45;;;;;;;5.28;2.85;;;20.30;39.30;;;;;;1887147;74;21129;-60
2022/04/21 07:58:13;;;;;;;3.50;3.15;;;20.30;39.30;;;;;;1885692;74;21135;-60
2022/04/21 08:00:41;;;;;;;6.10;3.33;;;20.20;39.30;;;;;;1887350;74;21196;-59
2022/04/21 08:03:09;;;;;;;4.00;3.22;;;20.20;39.30;;;;;;1885432;74;21243;-59
2022/04/21 08:05:36;;;;;;;7.00;3.20;;;20.20;39.30;;;;;;1881679;76;21153;-60
2022/04/21 08:08:04;;;;;;;3.50;2.90;;;20.20;39.30;;;;;;1885643;75;21113;-60
2022/04/21 08:10:31;;;;;;;7.15;3.45;;;20.30;39.30;;;;;;1885005;75;21146;-60
2022/04/21 08:12:59;;;;;;;4.75;3.12;;;20.30;39.60;;;;;;1884623;75;21158;-60
2022/04/21 08:15:33;;;;;;;4.85;3.60;;;20.30;39.50;;;;;;1885108;75;21600;-61
2022/04/21 08:18:05;;;;;;;9.10;3.22;;;20.30;39.30;;;;;;1885242;76;21094;-60
2022/04/21 08:20:34;;;;;;;4.87;3.22;;;20.20;39.30;;;;;;1885511;75;22194;-60
2022/04/21 08:23:02;;;;;;;7.72;3.12;;;20.20;39.40;;;;;;1885091;76;21213;-61
2022/04/21 08:33:46;;;;;;;8.43;3.25;;;20.20;39.40;;;;;;1885218;75;21195;-60
2022/04/21 08:36:13;;;;;;;5.47;3.33;;;20.20;39.40;;;;;;1885291;76;21191;-61
2022/04/21 08:38:40;;;;;;;4.22;3.42;;;20.30;39.40;;;;;;1885650;75;21223;-61
2022/04/21 08:41:10;;;;;;;6.83;3.12;;;20.30;39.40;;;;;;1885634;75;21173;-61
2022/04/21 08:43:37;;;;;;;5.60;3.55;;;20.30;39.40;;;;;;1885782;75;21584;-61
2022/04/21 08:46:05;;;;;;;3.75;3.12;;;20.30;39.90;;;;;;1885788;75;21168;-61
2022/04/21 08:48:34;;;;;;;7.28;3.15;;;20.30;39.40;;;;;;1885784;76;21184;-60
2022/04/21 08:51:02;;;;;;;5.33;2.90;;;20.30;39.50;;;;;;1858730;76;21662;-60
2022/04/21 08:53:29;;;;;;;4.50;3.05;;;20.30;39.40;;;;;;1885608;76;21150;-61
2022/04/21 08:55:57;;;;;;;3.98;3.10;;;20.30;39.40;;;;;;1885811;75;21114;-60
2022/04/21 08:58:24;;;;;;;6.80;3.60;;;20.30;39.50;;;;;;1885532;75;21106;-61
2022/04/21 09:00:54;;;;;;;3.67;3.02;;;20.30;40.00;;;;;;1885743;75;21106;-61
2022/04/21 09:03:22;;;;;;;5.00;3.17;;;20.10;40.40;;;;;;1885553;76;21854;-60
2022/04/21 09:05:49;;;;;;;6.62;3.80;;;20.00;39.80;;;;;;1872319;75;21479;-61
2022/04/21 09:08:22;;;;;;;9.50;3.20;;;19.90;39.70;;;;;;1858114;77;22488;-60
2022/04/21 09:11:04;;;;;;;5.15;3.30;;;19.80;39.70;;;;;;1858117;77;21162;-60
2022/04/21 09:13:35;;;;;;;5.72;3.62;;;19.80;39.80;;;;;;1857612;77;21167;-60
2022/04/21 09:16:04;;;;;;;12.90;4.35;;;19.80;39.80;;;;;;1857850;77;21189;-60
2022/04/21 09:18:40;;;;;;;5.45;4.03;;;19.80;40.20;;;;;;1857907;77;21136;-61
2022/04/21 09:21:10;;;;;;;8.68;3.85;;;19.90;40.00;;;;;;1858222;77;21190;-61
2022/04/21 09:23:38;;;;;;;6.35;4.15;;;20.00;39.70;;;;;;1857166;77;21495;-61
2022/04/21 09:26:13;;;;;;;7.17;3.33;;;20.10;39.50;;;;;;1857914;77;21132;-60
2022/04/21 09:28:40;;;;;;;6.72;3.17;;;20.20;39.50;;;;;;1858338;77;21124;-60
2022/04/21 09:31:08;;;;;;;5.47;3.45;;;20.20;39.40;;;;;;1858076;77;21119;-61
2022/04/21 09:33:44;;;;;;;5.53;3.15;;;20.20;39.40;;;;;;1858386;77;21614;-60
2022/04/21 09:36:12;;;;;;;2.80;2.50;;;20.20;39.60;;;;;;1858078;77;21101;-60
2022/04/21 09:38:39;;;;;;;7.28;3.15;;;20.30;39.50;;;;;;1857612;77;21049;-61
2022/04/21 09:41:08;;;;;;;9.38;3.27;;;20.30;39.50;;;;;;1857878;77;21186;-61
2022/04/21 09:43:37;;;;;;;5.50;2.75;;;20.30;39.50;;;;;;1857776;77;21249;-61
2022/04/21 09:46:16;;;;;;;4.08;3.05;;;20.30;39.50;;;;;;1861592;75;21152;-61
2022/04/21 09:48:44;;;;;;;6.03;2.60;;;20.30;39.50;;;;;;1878262;75;21677;-61
2022/04/21 09:51:13;;;;;;;10.25;3.47;;;20.30;39.50;;;;;;1877914;75;21175;-61
2022/04/21 09:54:05;;;;;;;6.40;3.35;;;20.30;39.50;;;;;;1869245;76;21161;-60
2022/04/21 09:56:36;;;;;;;3.85;2.95;;;20.30;39.80;;;;;;1870091;75;21754;-61
2022/04/21 09:59:07;;;;;;;5.78;2.75;;;20.40;39.60;;;;;;1879904;76;21665;-61
2022/04/21 10:01:37;;;;;;;11.18;3.17;;;20.40;39.60;;;;;;1888803;75;21113;-61
2022/04/21 10:04:06;;;;;;;6.37;3.08;;;20.40;39.70;;;;;;1892321;75;21957;-61
2022/04/21 10:06:33;;;;;;;8.68;3.12;;;20.40;39.70;;;;;;1900261;75;21140;-60
2022/04/21 10:09:01;;;;;;;3.98;2.77;;;20.40;39.70;;;;;;1895509;75;21576;-59
2022/04/21 10:11:28;;;;;;;7.50;2.98;;;20.40;39.70;;;;;;1902494;75;21170;-61
2022/04/21 10:13:56;;;;;;;12.37;3.33;;;20.50;39.80;;;;;;1900291;75;21681;-60
2022/04/21 10:16:24;;;;;;;5.08;3.05;;;20.50;39.90;;;;;;1896967;75;21381;-61
2022/04/21 10:18:59;;;;;;;10.38;3.55;;;20.50;39.90;;;;;;1904931;75;21863;-61
2022/04/21 10:21:38;;;;;;;11.00;3.05;;;20.50;40.20;;;;;;1898029;75;21664;-60
2022/04/21 10:24:06;;;;;;;7.55;2.50;;;20.60;40.30;;;;;;1898739;75;21155;-60
2022/04/21 10:26:43;;;;;;;10.03;3.52;;;20.60;41.10;;;;;;1904252;75;21469;-63
2022/04/21 10:29:15;;;;;;;7.45;2.98;;;20.60;40.70;;;;;;1889156;76;21128;-62
2022/04/21 10:32:03;;;;;;;10.25;2.80;;;20.60;40.60;;;;;;1897002;75;21124;-60
2022/04/21 10:34:42;;;;;;;12.28;2.83;;;20.60;40.90;;;;;;1895260;75;22070;-59
2022/04/21 10:37:25;;;;;;;10.28;3.12;;;20.70;40.70;;;;;;1901392;75;21090;-60
2022/04/21 10:40:09;;;;;;;7.30;2.95;;;20.60;41.20;;;;;;1898319;75;21115;-58
2022/04/21 10:42:55;;;;;;;9.83;2.40;;;20.60;40.60;;;;;;1905072;75;21761;-59
2022/04/21 10:45:23;;;;;;;9.85;3.12;;;20.60;40.60;;;;;;1895463;75;21166;-59
2022/04/21 10:48:09;;;;;;;18.95;2.92;;;20.60;40.50;;;;;;1898878;75;21064;-59
2022/04/21 10:50:38;;;;;;;11.90;2.72;;;20.60;40.50;;;;;;1892880;75;21540;-58
2022/04/21 10:58:38;;;;;;;3.45;2.60;;;20.60;40.70;;;;;;1844400;76;21696;-59
2022/04/21 11:01:15;;;;;;;6.55;3.00;;;20.60;40.60;;;;;;1883762;76;21077;-62
2022/04/21 11:03:44;;;;;;;10.40;2.47;;;20.70;40.60;;;;;;1889248;76;21152;-59
2022/04/21 11:06:15;;;;;;;8.50;2.62;;;20.60;40.50;;;;;;1888547;76;22073;-59
2022/04/21 11:08:43;;;;;;;5.83;2.90;;;20.70;40.50;;;;;;1887078;76;21610;-58
2022/04/21 11:11:13;;;;;;;4.90;2.60;;;20.70;40.50;;;;;;1886451;76;21117;-59
2022/04/21 11:13:52;;;;;;;7.97;2.90;;;20.70;40.50;;;;;;1887041;76;21077;-59
2022/04/21 11:16:45;;;;;;;5.17;2.77;;;20.70;40.50;;;;;;1887530;76;21174;-59
2022/04/21 11:19:36;;;;;;;9.60;2.83;;;20.70;40.50;;;;;;1887217;76;21194;-61
2022/04/21 11:22:06;;;;;;;9.28;2.90;;;20.70;40.50;;;;;;1887671;76;21201;-59
2022/04/21 11:25:03;;;;;;;3.70;2.50;;;20.70;40.50;;;;;;1887527;76;22216;-61
2022/04/21 11:27:32;;;;;;;7.17;3.02;;;20.70;40.40;;;;;;1872915;76;22235;-60
2022/04/21 11:30:04;;;;;;;6.92;2.90;;;20.70;40.40;;;;;;1887946;76;21226;-58
2022/04/21 11:32:32;;;;;;;3.98;2.85;;;20.80;40.50;;;;;;1887263;76;21135;-60
2022/04/21 11:35:12;;;;;;;8.93;2.95;;;20.80;40.40;;;;;;1887477;76;21118;-59
2022/04/21 11:37:48;;;;;;;4.42;2.65;;;20.80;41.00;;;;;;1887735;76;21162;-58
2022/04/21 11:40:32;;;;;;;7.72;2.62;;;20.80;40.40;;;;;;1886511;76;22065;-58
2022/04/21 11:43:17;;;;;;;4.58;2.72;;;20.80;40.40;;;;;;1887708;75;21649;-59
2022/04/21 11:46:04;;;;;;;5.95;2.87;;;20.80;40.40;;;;;;1887630;76;21096;-59
2022/04/21 11:48:38;;;;;;;10.65;4.50;;;20.80;40.50;;;;;;1887079;76;21122;-59
2022/04/21 11:51:05;;;;;;;4.40;2.72;;;20.80;40.60;;;;;;1888122;76;21666;-59
2022/04/21 11:53:40;;;;;;;6.35;2.77;;;20.80;40.40;;;;;;1886672;76;21236;-59
2022/04/21 11:56:09;;;;;;;5.87;2.95;;;20.80;40.60;;;;;;1886817;76;21165;-58
2022/04/21 11:58:41;;;;;;;7.05;2.55;;;20.80;41.10;;;;;;1886698;76;21110;-60
2022/04/21 12:06:55;;;;;;;8.78;3.17;;;20.70;40.50;;;;;;1885585;75;21690;-58
2022/04/21 12:09:25;;;;;;;6.17;2.52;;;20.70;40.50;;;;;;1879905;75;21212;-57
2022/04/21 12:11:54;;;;;;;3.47;2.40;;;20.70;40.50;;;;;;1878612;75;21135;-57
2022/04/21 12:14:22;;;;;;;2.83;2.37;;;20.70;40.50;;;;;;1862118;76;21651;-59
2022/04/21 12:16:54;;;;;;;5.45;2.30;;;20.70;40.50;;;;;;1855201;77;21086;-59
2022/04/21 12:19:32;;;;;;;5.08;2.90;;;20.70;40.50;;;;;;1855076;77;21105;-58
2022/04/21 12:22:03;;;;;;;4.10;2.58;;;20.70;40.50;;;;;;1854536;77;21140;-61
2022/04/21 12:24:32;;;;;;;3.92;2.25;;;20.70;40.50;;;;;;1854624;77;21223;-60
2022/04/21 12:27:00;;;;;;;8.23;2.92;;;20.70;40.30;;;;;;1854890;77;21611;-59
2022/04/21 12:29:32;;;;;;;4.97;2.60;;;20.70;40.30;;;;;;1855243;77;21114;-59
2022/04/21 12:31:59;;;;;;;5.97;2.60;;;20.70;40.30;;;;;;1854475;77;22256;-59
2022/04/21 12:34:31;;;;;;;4.58;2.50;;;20.70;40.30;;;;;;1854972;77;21132;-58
2022/04/21 12:36:59;;;;;;;5.30;2.92;;;20.70;40.40;;;;;;1856169;77;21533;-59
2022/04/21 12:39:28;;;;;;;5.50;3.00;;;20.70;40.30;;;;;;1855264;77;21114;-59
2022/04/21 12:41:55;;;;;;;5.78;2.60;;;20.70;40.30;;;;;;1891949;75;21110;-61
2022/04/21 12:44:25;;;;;;;5.95;2.33;;;20.70;40.30;;;;;;1900945;75;21125;-60
2022/04/21 12:47:03;;;;;;;7.92;2.83;;;20.70;40.30;;;;;;1902243;75;21097;-58
2022/04/21 12:49:57;;;;;;;4.40;2.40;;;20.70;40.20;;;;;;1901700;75;21031;-60
2022/04/21 12:52:35;;;;;;;2.17;1.98;;;20.70;40.30;;;;;;1871012;76;21094;-58
2022/04/21 12:55:21;;;;;;;3.58;2.00;;;20.70;40.20;;;;;;1870689;76;21125;-58
2022/04/21 12:58:10;;;;;;;2.77;2.12;;;20.70;40.30;;;;;;1888854;75;21131;-58
2022/04/21 13:00:40;;;;;;;3.47;2.75;;;20.70;40.40;;;;;;1898032;75;22332;-59
2022/04/21 13:03:10;;;;;;;4.75;2.10;;;20.70;40.40;;;;;;1889571;75;22147;-58
2022/04/21 13:05:51;;;;;;;5.92;2.35;;;20.70;40.30;;;;;;1892369;75;21681;-59
2022/04/21 13:08:19;;;;;;;3.95;2.17;;;20.70;40.50;;;;;;1888339;75;21213;-59
2022/04/21 13:10:46;;;;;;;3.25;2.95;;;20.70;40.50;;;;;;1906950;75;21164;-59
2022/04/21 13:13:13;;;;;;;3.42;2.25;;;20.70;40.60;;;;;;1890747;75;21229;-59
2022/04/21 13:15:41;;;;;;;6.35;2.15;;;20.70;40.60;;;;;;1903803;75;21128;-58
2022/04/21 13:18:08;;;;;;;2.45;2.12;;;20.70;41.20;;;;;;1897556;75;21124;-59
2022/04/21 13:23:24;;;;;;;6.90;2.33;;;20.70;40.60;;;;;;1895927;75;21230;-59
2022/04/21 13:25:49;;;;;;;2.87;1.82;;;20.70;40.60;;;;;;1895986;75;21140;-60
2022/04/21 13:28:17;;;;;;;2.08;1.90;;;20.70;40.50;;;;;;1895621;75;21633;-59
2022/04/21 13:30:44;;;;;;;4.60;2.85;;;20.70;40.50;;;;;;1896011;75;21112;-59
2022/04/21 13:33:23;;;;;;;6.50;2.22;;;20.70;40.50;;;;;;1896102;75;22276;-59
2022/04/21 13:35:51;;;;;;;2.00;1.60;;;20.70;40.50;;;;;;1904560;75;21210;-59
2022/04/21 13:38:19;;;;;;;1.85;1.75;;;20.70;40.50;;;;;;1911205;75;21210;-60
2022/04/21 13:40:46;;;;;;;2.65;2.10;;;20.70;40.10;;;;;;1912695;75;21163;-60
2022/04/21 13:43:14;;;;;;;3.10;2.05;;;20.70;40.40;;;;;;1912403;75;21189;-60
2022/04/21 13:45:41;;;;;;;3.87;1.98;;;20.70;41.00;;;;;;1911882;75;21070;-59
2022/04/21 13:48:09;;;;;;;3.05;2.00;;;20.70;40.50;;;;;;1911381;75;21097;-59